sensor_id;sensor_type;location;lat;lon;timestamp;P1;durP1;ratioP1;P2;durP2;ratioP2
78296;SDS011;67555;47.660;19.622;2023-03-31T00:00:35;29.15;;;14.10;;
78296;SDS011;67555;47.660;19.622;2023-03-31T00:03:01;29.10;;;14.18;;
78296;SDS011;67555;47.660;19.622;2023-03-31T00:05:27;25.58;;;12.93;;
78296;SDS011;67555;47.660;19.622;2023-03-31T00:07:53;29.52;;;14.13;;
78296;SDS011;67555;47.660;19.622;2023-03-31T00:10:25;21.42;;;13.90;;
78296;SDS011;67555;47.660;19.622;2023-03-31T00:13:00;25.55;;;14.10;;
78296;SDS011;67555;47.660;19.622;2023-03-31T00:15:26;25.73;;;12.85;;
78296;SDS011;67555;47.660;19.622;2023-03-31T00:17:52;24.75;;;13.10;;
78296;SDS011;67555;47.660;19.622;2023-03-31T00:20:18;22.67;;;11.95;;
78296;SDS011;67555;47.660;19.622;2023-03-31T00:22:44;25.35;;;12.52;;
78296;SDS011;67555;47.660;19.622;2023-03-31T00:25:14;26.33;;;13.93;;
78296;SDS011;67555;47.660;19.622;2023-03-31T00:27:43;24.90;;;12.80;;
78296;SDS011;67555;47.660;19.622;2023-03-31T00:30:10;24.42;;;14.27;;
78296;SDS011;67555;47.660;19.622;2023-03-31T00:32:37;23.02;;;12.45;;
78296;SDS011;67555;47.660;19.622;2023-03-31T00:35:03;29.70;;;14.07;;
78296;SDS011;67555;47.660;19.622;2023-03-31T00:37:29;24.23;;;13.02;;
78296;SDS011;67555;47.660;19.622;2023-03-31T00:39:57;25.40;;;12.98;;
78296;SDS011;67555;47.660;19.622;2023-03-31T00:42:23;27.35;;;12.48;;
78296;SDS011;67555;47.660;19.622;2023-03-31T00:50:33;28.08;;;12.98;;
78296;SDS011;67555;47.660;19.622;2023-03-31T00:53:06;23.70;;;12.82;;
78296;SDS011;67555;47.660;19.622;2023-03-31T00:55:39;24.98;;;13.70;;
78296;SDS011;67555;47.660;19.622;2023-03-31T00:58:08;28.00;;;12.52;;
78296;SDS011;67555;47.660;19.622;2023-03-31T01:00:40;25.20;;;13.05;;
78296;SDS011;67555;47.660;19.622;2023-03-31T01:03:06;27.00;;;12.55;;
78296;SDS011;67555;47.660;19.622;2023-03-31T01:08:11;20.50;;;12.45;;
78296;SDS011;67555;47.660;19.622;2023-03-31T01:10:48;24.17;;;13.35;;
78296;SDS011;67555;47.660;19.622;2023-03-31T01:13:17;23.65;;;12.10;;
78296;SDS011;67555;47.660;19.622;2023-03-31T01:15:45;25.52;;;12.10;;
78296;SDS011;67555;47.660;19.622;2023-03-31T01:18:11;18.80;;;11.55;;
78296;SDS011;67555;47.660;19.622;2023-03-31T01:23:32;21.10;;;11.50;;
78296;SDS011;67555;47.660;19.622;2023-03-31T01:27:25;25.58;;;12.52;;
78296;SDS011;67555;47.660;19.622;2023-03-31T01:48:13;23.67;;;12.07;;
78296;SDS011;67555;47.660;19.622;2023-03-31T01:56:06;22.75;;;12.30;;
78296;SDS011;67555;47.660;19.622;2023-03-31T01:58:52;23.38;;;12.93;;
78296;SDS011;67555;47.660;19.622;2023-03-31T02:04:07;27.05;;;13.82;;
78296;SDS011;67555;47.660;19.622;2023-03-31T02:06:35;29.20;;;14.63;;
78296;SDS011;67555;47.660;19.622;2023-03-31T02:09:12;25.20;;;14.55;;
78296;SDS011;67555;47.660;19.622;2023-03-31T02:11:47;30.60;;;16.88;;
78296;SDS011;67555;47.660;19.622;2023-03-31T02:14:15;28.13;;;15.48;;
78296;SDS011;67555;47.660;19.622;2023-03-31T02:16:46;26.98;;;15.02;;
78296;SDS011;67555;47.660;19.622;2023-03-31T02:19:17;27.52;;;15.05;;
78296;SDS011;67555;47.660;19.622;2023-03-31T02:21:46;29.77;;;17.33;;
78296;SDS011;67555;47.660;19.622;2023-03-31T02:24:17;26.33;;;13.80;;
78296;SDS011;67555;47.660;19.622;2023-03-31T02:26:51;34.10;;;17.27;;
78296;SDS011;67555;47.660;19.622;2023-03-31T02:29:33;25.35;;;14.93;;
78296;SDS011;67555;47.660;19.622;2023-03-31T02:34:32;33.58;;;15.93;;
78296;SDS011;67555;47.660;19.622;2023-03-31T02:36:58;28.35;;;15.75;;
78296;SDS011;67555;47.660;19.622;2023-03-31T02:39:24;32.55;;;15.73;;
78296;SDS011;67555;47.660;19.622;2023-03-31T02:41:57;27.27;;;14.60;;
78296;SDS011;67555;47.660;19.622;2023-03-31T02:44:26;28.17;;;13.90;;
78296;SDS011;67555;47.660;19.622;2023-03-31T02:46:52;26.33;;;13.73;;
78296;SDS011;67555;47.660;19.622;2023-03-31T02:49:18;24.70;;;13.15;;
78296;SDS011;67555;47.660;19.622;2023-03-31T03:13:08;28.83;;;13.68;;
78296;SDS011;67555;47.660;19.622;2023-03-31T03:15:47;24.00;;;12.02;;
78296;SDS011;67555;47.660;19.622;2023-03-31T03:18:25;23.58;;;12.55;;
78296;SDS011;67555;47.660;19.622;2023-03-31T03:20:51;24.55;;;12.95;;
78296;SDS011;67555;47.660;19.622;2023-03-31T03:23:17;24.02;;;12.52;;
78296;SDS011;67555;47.660;19.622;2023-03-31T03:25:43;24.73;;;12.73;;
78296;SDS011;67555;47.660;19.622;2023-03-31T03:28:09;28.80;;;13.68;;
78296;SDS011;67555;47.660;19.622;2023-03-31T03:30:35;30.65;;;15.68;;
78296;SDS011;67555;47.660;19.622;2023-03-31T03:33:01;30.80;;;13.82;;
78296;SDS011;67555;47.660;19.622;2023-03-31T03:35:27;26.98;;;12.68;;
78296;SDS011;67555;47.660;19.622;2023-03-31T03:37:53;26.60;;;13.75;;
78296;SDS011;67555;47.660;19.622;2023-03-31T03:40:18;26.48;;;13.98;;
78296;SDS011;67555;47.660;19.622;2023-03-31T03:42:44;25.50;;;13.25;;
78296;SDS011;67555;47.660;19.622;2023-03-31T03:45:10;26.33;;;13.65;;
78296;SDS011;67555;47.660;19.622;2023-03-31T03:47:36;24.45;;;13.95;;
78296;SDS011;67555;47.660;19.622;2023-03-31T03:50:02;23.10;;;12.02;;
78296;SDS011;67555;47.660;19.622;2023-03-31T03:52:28;25.40;;;12.85;;
78296;SDS011;67555;47.660;19.622;2023-03-31T03:54:54;22.45;;;13.00;;
78296;SDS011;67555;47.660;19.622;2023-03-31T03:57:20;20.85;;;12.77;;
78296;SDS011;67555;47.660;19.622;2023-03-31T03:59:45;22.88;;;12.05;;
78296;SDS011;67555;47.660;19.622;2023-03-31T04:02:11;21.15;;;12.75;;
78296;SDS011;67555;47.660;19.622;2023-03-31T04:04:38;21.98;;;13.10;;
78296;SDS011;67555;47.660;19.622;2023-03-31T04:07:03;30.05;;;13.20;;
78296;SDS011;67555;47.660;19.622;2023-03-31T04:09:29;26.65;;;14.63;;
78296;SDS011;67555;47.660;19.622;2023-03-31T04:11:55;23.33;;;13.82;;
78296;SDS011;67555;47.660;19.622;2023-03-31T04:14:22;25.50;;;14.20;;
78296;SDS011;67555;47.660;19.622;2023-03-31T04:16:49;22.67;;;13.43;;
78296;SDS011;67555;47.660;19.622;2023-03-31T04:19:15;32.58;;;15.00;;
78296;SDS011;67555;47.660;19.622;2023-03-31T04:21:42;24.42;;;13.13;;
78296;SDS011;67555;47.660;19.622;2023-03-31T04:24:22;24.33;;;13.13;;
78296;SDS011;67555;47.660;19.622;2023-03-31T04:26:54;23.65;;;13.23;;
78296;SDS011;67555;47.660;19.622;2023-03-31T04:29:21;24.25;;;13.15;;
78296;SDS011;67555;47.660;19.622;2023-03-31T04:31:50;22.67;;;13.20;;
78296;SDS011;67555;47.660;19.622;2023-03-31T04:34:23;27.50;;;11.77;;
78296;SDS011;67555;47.660;19.622;2023-03-31T04:36:51;19.95;;;12.50;;
78296;SDS011;67555;47.660;19.622;2023-03-31T04:39:20;22.08;;;11.13;;
78296;SDS011;67555;47.660;19.622;2023-03-31T04:41:55;20.08;;;10.77;;
78296;SDS011;67555;47.660;19.622;2023-03-31T04:44:21;25.20;;;11.48;;
78296;SDS011;67555;47.660;19.622;2023-03-31T04:46:47;19.30;;;11.35;;
78296;SDS011;67555;47.660;19.622;2023-03-31T04:49:13;21.33;;;10.98;;
78296;SDS011;67555;47.660;19.622;2023-03-31T04:51:39;19.83;;;10.98;;
78296;SDS011;67555;47.660;19.622;2023-03-31T04:54:05;27.65;;;11.00;;
78296;SDS011;67555;47.660;19.622;2023-03-31T04:56:31;22.63;;;10.25;;
78296;SDS011;67555;47.660;19.622;2023-03-31T04:58:57;43.85;;;18.85;;
78296;SDS011;67555;47.660;19.622;2023-03-31T05:01:22;168.82;;;58.90;;
78296;SDS011;67555;47.660;19.622;2023-03-31T05:03:48;355.30;;;107.55;;
78296;SDS011;67555;47.660;19.622;2023-03-31T05:06:14;298.38;;;77.03;;
78296;SDS011;67555;47.660;19.622;2023-03-31T05:08:40;70.65;;;22.75;;
78296;SDS011;67555;47.660;19.622;2023-03-31T05:11:06;29.30;;;12.15;;
78296;SDS011;67555;47.660;19.622;2023-03-31T05:13:32;201.77;;;46.08;;
78296;SDS011;67555;47.660;19.622;2023-03-31T05:16:04;136.25;;;36.38;;
78296;SDS011;67555;47.660;19.622;2023-03-31T05:18:31;126.35;;;34.13;;
78296;SDS011;67555;47.660;19.622;2023-03-31T05:20:56;123.00;;;32.17;;
78296;SDS011;67555;47.660;19.622;2023-03-31T05:23:31;35.75;;;15.90;;
78296;SDS011;67555;47.660;19.622;2023-03-31T05:25:57;71.68;;;21.33;;
78296;SDS011;67555;47.660;19.622;2023-03-31T05:28:23;49.00;;;16.70;;
78296;SDS011;67555;47.660;19.622;2023-03-31T05:30:49;72.68;;;25.95;;
78296;SDS011;67555;47.660;19.622;2023-03-31T05:33:14;181.82;;;57.72;;
78296;SDS011;67555;47.660;19.622;2023-03-31T05:35:40;103.78;;;34.75;;
78296;SDS011;67555;47.660;19.622;2023-03-31T05:38:06;89.20;;;26.38;;
78296;SDS011;67555;47.660;19.622;2023-03-31T05:40:32;32.97;;;13.80;;
78296;SDS011;67555;47.660;19.622;2023-03-31T05:42:57;19.27;;;11.25;;
78296;SDS011;67555;47.660;19.622;2023-03-31T05:45:23;14.07;;;9.88;;
78296;SDS011;67555;47.660;19.622;2023-03-31T05:47:49;17.60;;;9.98;;
78296;SDS011;67555;47.660;19.622;2023-03-31T05:50:15;19.15;;;10.10;;
78296;SDS011;67555;47.660;19.622;2023-03-31T05:52:41;19.52;;;10.60;;
78296;SDS011;67555;47.660;19.622;2023-03-31T05:55:07;15.65;;;8.35;;
78296;SDS011;67555;47.660;19.622;2023-03-31T05:57:33;15.80;;;10.05;;
78296;SDS011;67555;47.660;19.622;2023-03-31T05:59:58;19.88;;;9.57;;
78296;SDS011;67555;47.660;19.622;2023-03-31T06:02:24;15.38;;;9.65;;
78296;SDS011;67555;47.660;19.622;2023-03-31T06:04:50;16.83;;;9.65;;
78296;SDS011;67555;47.660;19.622;2023-03-31T06:07:16;17.80;;;9.18;;
78296;SDS011;67555;47.660;19.622;2023-03-31T06:09:42;18.80;;;9.55;;
78296;SDS011;67555;47.660;19.622;2023-03-31T06:12:08;18.40;;;11.77;;
78296;SDS011;67555;47.660;19.622;2023-03-31T06:14:33;15.70;;;10.90;;
78296;SDS011;67555;47.660;19.622;2023-03-31T06:16:59;22.13;;;11.85;;
78296;SDS011;67555;47.660;19.622;2023-03-31T06:19:25;17.73;;;10.48;;
78296;SDS011;67555;47.660;19.622;2023-03-31T06:21:51;16.10;;;9.77;;
78296;SDS011;67555;47.660;19.622;2023-03-31T06:24:17;25.77;;;12.98;;
78296;SDS011;67555;47.660;19.622;2023-03-31T06:26:42;19.52;;;9.18;;
78296;SDS011;67555;47.660;19.622;2023-03-31T06:29:08;16.58;;;8.48;;
78296;SDS011;67555;47.660;19.622;2023-03-31T06:31:34;20.30;;;7.30;;
78296;SDS011;67555;47.660;19.622;2023-03-31T06:34:00;11.98;;;8.13;;
78296;SDS011;67555;47.660;19.622;2023-03-31T06:36:26;14.15;;;8.70;;
78296;SDS011;67555;47.660;19.622;2023-03-31T06:38:52;11.25;;;6.70;;
78296;SDS011;67555;47.660;19.622;2023-03-31T06:41:18;13.93;;;6.40;;
78296;SDS011;67555;47.660;19.622;2023-03-31T06:43:45;10.50;;;5.50;;
78296;SDS011;67555;47.660;19.622;2023-03-31T06:46:11;13.98;;;6.55;;
78296;SDS011;67555;47.660;19.622;2023-03-31T06:48:37;11.93;;;5.70;;
78296;SDS011;67555;47.660;19.622;2023-03-31T06:51:03;13.20;;;5.90;;
78296;SDS011;67555;47.660;19.622;2023-03-31T06:53:30;11.40;;;5.13;;
78296;SDS011;67555;47.660;19.622;2023-03-31T06:55:56;6.95;;;4.35;;
78296;SDS011;67555;47.660;19.622;2023-03-31T06:58:22;6.38;;;3.25;;
78296;SDS011;67555;47.660;19.622;2023-03-31T07:00:48;7.25;;;4.22;;
78296;SDS011;67555;47.660;19.622;2023-03-31T07:03:14;7.80;;;4.10;;
78296;SDS011;67555;47.660;19.622;2023-03-31T07:05:49;11.95;;;3.67;;
78296;SDS011;67555;47.660;19.622;2023-03-31T07:08:16;11.35;;;5.90;;
78296;SDS011;67555;47.660;19.622;2023-03-31T07:10:43;13.63;;;5.72;;
78296;SDS011;67555;47.660;19.622;2023-03-31T07:13:13;9.63;;;5.72;;
78296;SDS011;67555;47.660;19.622;2023-03-31T07:15:40;11.32;;;6.15;;
78296;SDS011;67555;47.660;19.622;2023-03-31T07:18:06;11.52;;;5.35;;
78296;SDS011;67555;47.660;19.622;2023-03-31T07:20:33;5.57;;;4.32;;
78296;SDS011;67555;47.660;19.622;2023-03-31T07:23:02;6.00;;;3.05;;
78296;SDS011;67555;47.660;19.622;2023-03-31T07:25:28;6.18;;;3.15;;
78296;SDS011;67555;47.660;19.622;2023-03-31T07:27:54;5.10;;;3.53;;
78296;SDS011;67555;47.660;19.622;2023-03-31T07:30:20;5.97;;;2.95;;
78296;SDS011;67555;47.660;19.622;2023-03-31T07:32:47;11.98;;;3.33;;
78296;SDS011;67555;47.660;19.622;2023-03-31T07:35:15;5.85;;;3.22;;
78296;SDS011;67555;47.660;19.622;2023-03-31T07:37:43;4.97;;;2.88;;
78296;SDS011;67555;47.660;19.622;2023-03-31T07:40:11;5.63;;;3.40;;
78296;SDS011;67555;47.660;19.622;2023-03-31T07:42:42;9.00;;;3.58;;
78296;SDS011;67555;47.660;19.622;2023-03-31T07:45:08;7.82;;;3.50;;
78296;SDS011;67555;47.660;19.622;2023-03-31T07:47:35;8.75;;;3.13;;
78296;SDS011;67555;47.660;19.622;2023-03-31T07:50:00;5.00;;;3.10;;
78296;SDS011;67555;47.660;19.622;2023-03-31T07:52:26;8.60;;;3.33;;
78296;SDS011;67555;47.660;19.622;2023-03-31T07:54:52;6.80;;;3.78;;
78296;SDS011;67555;47.660;19.622;2023-03-31T07:57:18;5.40;;;3.55;;
78296;SDS011;67555;47.660;19.622;2023-03-31T07:59:46;7.60;;;3.25;;
78296;SDS011;67555;47.660;19.622;2023-03-31T08:04:39;12.30;;;4.20;;
78296;SDS011;67555;47.660;19.622;2023-03-31T08:07:11;6.38;;;3.53;;
78296;SDS011;67555;47.660;19.622;2023-03-31T08:09:38;6.70;;;3.53;;
78296;SDS011;67555;47.660;19.622;2023-03-31T08:12:06;5.82;;;3.67;;
78296;SDS011;67555;47.660;19.622;2023-03-31T08:14:32;8.63;;;4.10;;
78296;SDS011;67555;47.660;19.622;2023-03-31T08:16:58;6.07;;;3.97;;
78296;SDS011;67555;47.660;19.622;2023-03-31T08:19:24;7.20;;;4.40;;
78296;SDS011;67555;47.660;19.622;2023-03-31T08:21:50;6.68;;;3.55;;
78296;SDS011;67555;47.660;19.622;2023-03-31T08:24:16;8.68;;;4.57;;
78296;SDS011;67555;47.660;19.622;2023-03-31T08:26:43;7.65;;;3.63;;
78296;SDS011;67555;47.660;19.622;2023-03-31T08:29:10;7.28;;;3.95;;
78296;SDS011;67555;47.660;19.622;2023-03-31T08:31:35;5.50;;;3.17;;
78296;SDS011;67555;47.660;19.622;2023-03-31T08:34:01;6.82;;;3.22;;
78296;SDS011;67555;47.660;19.622;2023-03-31T08:36:27;5.65;;;3.10;;
78296;SDS011;67555;47.660;19.622;2023-03-31T08:38:53;6.20;;;3.53;;
78296;SDS011;67555;47.660;19.622;2023-03-31T08:44:25;7.53;;;3.65;;
78296;SDS011;67555;47.660;19.622;2023-03-31T08:46:55;5.00;;;3.03;;
78296;SDS011;67555;47.660;19.622;2023-03-31T08:49:23;5.82;;;2.95;;
78296;SDS011;67555;47.660;19.622;2023-03-31T08:54:39;6.30;;;3.22;;
78296;SDS011;67555;47.660;19.622;2023-03-31T08:57:13;6.35;;;3.05;;
78296;SDS011;67555;47.660;19.622;2023-03-31T08:59:44;6.38;;;3.40;;
78296;SDS011;67555;47.660;19.622;2023-03-31T09:20:39;9.13;;;3.15;;
78296;SDS011;67555;47.660;19.622;2023-03-31T09:25:43;4.68;;;2.33;;
78296;SDS011;67555;47.660;19.622;2023-03-31T09:28:17;6.97;;;2.75;;
78296;SDS011;67555;47.660;19.622;2023-03-31T09:30:45;9.30;;;3.78;;
78296;SDS011;67555;47.660;19.622;2023-03-31T09:33:17;12.98;;;3.17;;
78296;SDS011;67555;47.660;19.622;2023-03-31T09:35:52;6.35;;;2.95;;
78296;SDS011;67555;47.660;19.622;2023-03-31T09:38:18;4.18;;;2.45;;
78296;SDS011;67555;47.660;19.622;2023-03-31T09:40:44;4.60;;;2.38;;
78296;SDS011;67555;47.660;19.622;2023-03-31T09:43:16;4.53;;;2.85;;
78296;SDS011;67555;47.660;19.622;2023-03-31T09:45:46;5.75;;;2.20;;
78296;SDS011;67555;47.660;19.622;2023-03-31T09:48:17;3.50;;;2.30;;
78296;SDS011;67555;47.660;19.622;2023-03-31T09:50:58;4.03;;;2.25;;
78296;SDS011;67555;47.660;19.622;2023-03-31T09:56:10;8.32;;;4.53;;
78296;SDS011;67555;47.660;19.622;2023-03-31T09:58:40;9.35;;;3.30;;
78296;SDS011;67555;47.660;19.622;2023-03-31T10:01:07;5.45;;;2.72;;
78296;SDS011;67555;47.660;19.622;2023-03-31T10:03:49;7.47;;;3.08;;
78296;SDS011;67555;47.660;19.622;2023-03-31T10:06:16;6.22;;;2.65;;
78296;SDS011;67555;47.660;19.622;2023-03-31T10:11:23;7.70;;;2.80;;
78296;SDS011;67555;47.660;19.622;2023-03-31T10:13:52;5.00;;;3.00;;
78296;SDS011;67555;47.660;19.622;2023-03-31T10:18:53;9.65;;;3.22;;
78296;SDS011;67555;47.660;19.622;2023-03-31T10:21:23;8.02;;;3.22;;
78296;SDS011;67555;47.660;19.622;2023-03-31T10:23:51;11.15;;;3.35;;
78296;SDS011;67555;47.660;19.622;2023-03-31T10:26:21;8.98;;;3.17;;
78296;SDS011;67555;47.660;19.622;2023-03-31T10:28:51;6.32;;;3.22;;
78296;SDS011;67555;47.660;19.622;2023-03-31T10:31:19;9.75;;;3.08;;
78296;SDS011;67555;47.660;19.622;2023-03-31T10:33:57;6.53;;;3.20;;
78296;SDS011;67555;47.660;19.622;2023-03-31T10:36:29;4.38;;;2.92;;
78296;SDS011;67555;47.660;19.622;2023-03-31T10:38:56;8.82;;;3.50;;
78296;SDS011;67555;47.660;19.622;2023-03-31T10:41:31;8.07;;;3.33;;
78296;SDS011;67555;47.660;19.622;2023-03-31T10:43:58;5.32;;;2.78;;
78296;SDS011;67555;47.660;19.622;2023-03-31T10:51:51;6.88;;;2.78;;
78296;SDS011;67555;47.660;19.622;2023-03-31T10:54:21;5.47;;;3.03;;
78296;SDS011;67555;47.660;19.622;2023-03-31T10:56:50;7.53;;;3.28;;
78296;SDS011;67555;47.660;19.622;2023-03-31T11:05:14;7.30;;;3.22;;
78296;SDS011;67555;47.660;19.622;2023-03-31T11:08:13;4.82;;;3.22;;
78296;SDS011;67555;47.660;19.622;2023-03-31T11:11:19;6.03;;;2.80;;
78296;SDS011;67555;47.660;19.622;2023-03-31T11:13:51;4.63;;;2.90;;
78296;SDS011;67555;47.660;19.622;2023-03-31T11:22:08;6.47;;;2.55;;
78296;SDS011;67555;47.660;19.622;2023-03-31T11:28:00;7.35;;;2.95;;
78296;SDS011;67555;47.660;19.622;2023-03-31T11:30:31;4.60;;;2.80;;
78296;SDS011;67555;47.660;19.622;2023-03-31T11:39:03;6.00;;;2.45;;
78296;SDS011;67555;47.660;19.622;2023-03-31T11:41:49;4.57;;;2.65;;
78296;SDS011;67555;47.660;19.622;2023-03-31T11:44:19;5.50;;;2.60;;
78296;SDS011;67555;47.660;19.622;2023-03-31T11:46:52;5.50;;;3.00;;
78296;SDS011;67555;47.660;19.622;2023-03-31T11:49:26;5.72;;;2.08;;
78296;SDS011;67555;47.660;19.622;2023-03-31T11:52:26;6.57;;;2.22;;
78296;SDS011;67555;47.660;19.622;2023-03-31T12:00:10;6.25;;;2.90;;
78296;SDS011;67555;47.660;19.622;2023-03-31T12:05:41;8.13;;;2.50;;
78296;SDS011;67555;47.660;19.622;2023-03-31T12:10:52;5.50;;;2.10;;
78296;SDS011;67555;47.660;19.622;2023-03-31T12:15:57;5.13;;;1.92;;
78296;SDS011;67555;47.660;19.622;2023-03-31T12:21:29;4.53;;;2.80;;
78296;SDS011;67555;47.660;19.622;2023-03-31T12:23:59;3.60;;;2.13;;
78296;SDS011;67555;47.660;19.622;2023-03-31T12:29:33;4.82;;;2.33;;
78296;SDS011;67555;47.660;19.622;2023-03-31T12:32:03;6.13;;;2.85;;
78296;SDS011;67555;47.660;19.622;2023-03-31T12:34:36;4.47;;;2.78;;
78296;SDS011;67555;47.660;19.622;2023-03-31T12:39:59;3.60;;;2.20;;
78296;SDS011;67555;47.660;19.622;2023-03-31T12:50:49;5.57;;;2.80;;
78296;SDS011;67555;47.660;19.622;2023-03-31T12:59:41;7.95;;;2.65;;
78296;SDS011;67555;47.660;19.622;2023-03-31T13:04:40;3.45;;;2.38;;
78296;SDS011;67555;47.660;19.622;2023-03-31T13:09:54;5.25;;;2.60;;
78296;SDS011;67555;47.660;19.622;2023-03-31T13:12:22;6.25;;;2.53;;
78296;SDS011;67555;47.660;19.622;2023-03-31T13:14:51;6.28;;;2.80;;
78296;SDS011;67555;47.660;19.622;2023-03-31T13:17:26;7.20;;;3.63;;
78296;SDS011;67555;47.660;19.622;2023-03-31T13:28:15;4.45;;;3.13;;
78296;SDS011;67555;47.660;19.622;2023-03-31T13:30:52;8.43;;;5.03;;
78296;SDS011;67555;47.660;19.622;2023-03-31T13:33:27;6.35;;;3.13;;
78296;SDS011;67555;47.660;19.622;2023-03-31T13:36:48;6.43;;;2.72;;
78296;SDS011;67555;47.660;19.622;2023-03-31T13:42:00;6.95;;;3.03;;
78296;SDS011;67555;47.660;19.622;2023-03-31T13:58:17;5.85;;;3.63;;
78296;SDS011;67555;47.660;19.622;2023-03-31T14:09:41;6.35;;;3.45;;
78296;SDS011;67555;47.660;19.622;2023-03-31T14:12:29;7.18;;;3.47;;
78296;SDS011;67555;47.660;19.622;2023-03-31T14:14:56;6.03;;;3.08;;
78296;SDS011;67555;47.660;19.622;2023-03-31T14:17:25;7.38;;;3.83;;
78296;SDS011;67555;47.660;19.622;2023-03-31T14:23:04;7.60;;;3.97;;
78296;SDS011;67555;47.660;19.622;2023-03-31T14:39:03;7.68;;;4.07;;
78296;SDS011;67555;47.660;19.622;2023-03-31T14:41:31;7.00;;;3.40;;
78296;SDS011;67555;47.660;19.622;2023-03-31T14:43:59;9.25;;;3.88;;
78296;SDS011;67555;47.660;19.622;2023-03-31T14:46:28;4.80;;;3.55;;
78296;SDS011;67555;47.660;19.622;2023-03-31T14:49:04;15.68;;;4.30;;
78296;SDS011;67555;47.660;19.622;2023-03-31T14:52:00;7.57;;;3.90;;
78296;SDS011;67555;47.660;19.622;2023-03-31T14:54:36;8.40;;;4.20;;
78296;SDS011;67555;47.660;19.622;2023-03-31T14:57:02;7.93;;;3.75;;
78296;SDS011;67555;47.660;19.622;2023-03-31T14:59:30;5.72;;;3.60;;
78296;SDS011;67555;47.660;19.622;2023-03-31T15:01:58;12.60;;;3.97;;
78296;SDS011;67555;47.660;19.622;2023-03-31T15:04:29;6.13;;;3.30;;
78296;SDS011;67555;47.660;19.622;2023-03-31T15:06:59;6.55;;;3.72;;
78296;SDS011;67555;47.660;19.622;2023-03-31T15:09:27;8.48;;;3.80;;
78296;SDS011;67555;47.660;19.622;2023-03-31T15:11:56;7.35;;;3.63;;
78296;SDS011;67555;47.660;19.622;2023-03-31T15:14:31;9.15;;;3.47;;
78296;SDS011;67555;47.660;19.622;2023-03-31T15:17:00;6.43;;;3.63;;
78296;SDS011;67555;47.660;19.622;2023-03-31T15:19:30;9.07;;;3.70;;
78296;SDS011;67555;47.660;19.622;2023-03-31T15:22:15;9.30;;;4.22;;
78296;SDS011;67555;47.660;19.622;2023-03-31T15:24:45;9.93;;;3.85;;
78296;SDS011;67555;47.660;19.622;2023-03-31T15:29:42;6.20;;;3.70;;
78296;SDS011;67555;47.660;19.622;2023-03-31T15:32:13;7.50;;;4.00;;
78296;SDS011;67555;47.660;19.622;2023-03-31T15:34:51;11.35;;;4.22;;
78296;SDS011;67555;47.660;19.622;2023-03-31T15:37:21;10.98;;;4.70;;
78296;SDS011;67555;47.660;19.622;2023-03-31T15:39:53;13.88;;;5.40;;
78296;SDS011;67555;47.660;19.622;2023-03-31T15:42:21;23.73;;;8.18;;
78296;SDS011;67555;47.660;19.622;2023-03-31T15:47:49;15.20;;;6.68;;
78296;SDS011;67555;47.660;19.622;2023-03-31T15:50:16;16.63;;;7.63;;
78296;SDS011;67555;47.660;19.622;2023-03-31T15:52:49;24.05;;;6.93;;
78296;SDS011;67555;47.660;19.622;2023-03-31T15:55:30;17.10;;;6.53;;
78296;SDS011;67555;47.660;19.622;2023-03-31T15:58:03;9.32;;;5.88;;
78296;SDS011;67555;47.660;19.622;2023-03-31T16:03:01;16.13;;;5.95;;
78296;SDS011;67555;47.660;19.622;2023-03-31T16:05:37;8.65;;;4.55;;
78296;SDS011;67555;47.660;19.622;2023-03-31T16:08:16;7.57;;;4.40;;
78296;SDS011;67555;47.660;19.622;2023-03-31T16:11:12;11.43;;;4.75;;
78296;SDS011;67555;47.660;19.622;2023-03-31T16:13:44;7.03;;;3.92;;
78296;SDS011;67555;47.660;19.622;2023-03-31T16:16:16;9.90;;;5.35;;
78296;SDS011;67555;47.660;19.622;2023-03-31T16:18:48;10.73;;;4.68;;
78296;SDS011;67555;47.660;19.622;2023-03-31T16:21:25;11.30;;;5.00;;
78296;SDS011;67555;47.660;19.622;2023-03-31T16:23:55;6.57;;;4.40;;
78296;SDS011;67555;47.660;19.622;2023-03-31T16:26:23;12.05;;;7.78;;
78296;SDS011;67555;47.660;19.622;2023-03-31T16:28:52;33.47;;;17.40;;
78296;SDS011;67555;47.660;19.622;2023-03-31T16:31:37;17.92;;;11.73;;
78296;SDS011;67555;47.660;19.622;2023-03-31T16:34:08;9.07;;;4.50;;
78296;SDS011;67555;47.660;19.622;2023-03-31T16:36:35;15.85;;;5.68;;
78296;SDS011;67555;47.660;19.622;2023-03-31T16:39:03;12.13;;;5.93;;
78296;SDS011;67555;47.660;19.622;2023-03-31T16:41:33;12.38;;;5.55;;
78296;SDS011;67555;47.660;19.622;2023-03-31T16:44:00;40.08;;;18.80;;
78296;SDS011;67555;47.660;19.622;2023-03-31T16:46:27;14.15;;;8.70;;
78296;SDS011;67555;47.660;19.622;2023-03-31T16:48:53;15.88;;;7.78;;
78296;SDS011;67555;47.660;19.622;2023-03-31T16:51:19;9.70;;;4.28;;
78296;SDS011;67555;47.660;19.622;2023-03-31T16:53:45;10.90;;;5.05;;
78296;SDS011;67555;47.660;19.622;2023-03-31T16:56:12;11.15;;;4.63;;
78296;SDS011;67555;47.660;19.622;2023-03-31T16:58:39;10.50;;;5.22;;
78296;SDS011;67555;47.660;19.622;2023-03-31T17:01:05;20.90;;;6.28;;
78296;SDS011;67555;47.660;19.622;2023-03-31T17:03:33;12.80;;;5.88;;
78296;SDS011;67555;47.660;19.622;2023-03-31T17:06:05;10.40;;;5.13;;
78296;SDS011;67555;47.660;19.622;2023-03-31T17:08:33;4.90;;;3.08;;
78296;SDS011;67555;47.660;19.622;2023-03-31T17:11:12;7.72;;;3.53;;
78296;SDS011;67555;47.660;19.622;2023-03-31T17:13:38;4.25;;;2.70;;
78296;SDS011;67555;47.660;19.622;2023-03-31T17:16:06;4.20;;;2.75;;
78296;SDS011;67555;47.660;19.622;2023-03-31T17:18:32;15.85;;;4.40;;
78296;SDS011;67555;47.660;19.622;2023-03-31T17:21:05;8.27;;;3.38;;
78296;SDS011;67555;47.660;19.622;2023-03-31T17:23:32;11.10;;;3.42;;
78296;SDS011;67555;47.660;19.622;2023-03-31T17:26:00;13.40;;;4.72;;
78296;SDS011;67555;47.660;19.622;2023-03-31T17:28:26;7.53;;;3.25;;
78296;SDS011;67555;47.660;19.622;2023-03-31T17:30:53;8.32;;;4.65;;
78296;SDS011;67555;47.660;19.622;2023-03-31T17:33:19;4.15;;;2.83;;
78296;SDS011;67555;47.660;19.622;2023-03-31T17:35:46;4.93;;;2.67;;
78296;SDS011;67555;47.660;19.622;2023-03-31T17:38:12;5.47;;;2.42;;
78296;SDS011;67555;47.660;19.622;2023-03-31T17:40:39;5.55;;;3.20;;
78296;SDS011;67555;47.660;19.622;2023-03-31T17:43:05;5.15;;;3.13;;
78296;SDS011;67555;47.660;19.622;2023-03-31T17:45:31;4.72;;;2.80;;
78296;SDS011;67555;47.660;19.622;2023-03-31T17:47:58;6.70;;;3.17;;
78296;SDS011;67555;47.660;19.622;2023-03-31T17:50:25;6.30;;;3.50;;
78296;SDS011;67555;47.660;19.622;2023-03-31T17:52:51;4.70;;;2.60;;
78296;SDS011;67555;47.660;19.622;2023-03-31T17:55:17;8.43;;;4.25;;
78296;SDS011;67555;47.660;19.622;2023-03-31T17:57:44;5.85;;;3.05;;
78296;SDS011;67555;47.660;19.622;2023-03-31T18:00:10;5.57;;;3.10;;
78296;SDS011;67555;47.660;19.622;2023-03-31T18:02:39;5.70;;;2.78;;
78296;SDS011;67555;47.660;19.622;2023-03-31T18:05:06;15.88;;;4.47;;
78296;SDS011;67555;47.660;19.622;2023-03-31T18:07:33;6.28;;;3.25;;
78296;SDS011;67555;47.660;19.622;2023-03-31T18:10:01;8.00;;;3.10;;
78296;SDS011;67555;47.660;19.622;2023-03-31T18:14:56;8.23;;;2.70;;
78296;SDS011;67555;47.660;19.622;2023-03-31T18:17:23;5.85;;;2.88;;
78296;SDS011;67555;47.660;19.622;2023-03-31T18:19:49;5.50;;;3.08;;
78296;SDS011;67555;47.660;19.622;2023-03-31T18:22:15;6.18;;;3.42;;
78296;SDS011;67555;47.660;19.622;2023-03-31T18:24:41;5.70;;;3.40;;